sensor_id;sensor_type;location;lat;lon;timestamp;P1;durP1;ratioP1;P2;durP2;ratioP2
58878;SDS011;44660;42.664;23.266;2022-09-09T00:00:22;14.57;;;9.18;;
58878;SDS011;44660;42.664;23.266;2022-09-09T00:03:01;11.90;;;8.85;;
58878;SDS011;44660;42.664;23.266;2022-09-09T00:08:20;12.35;;;8.93;;
58878;SDS011;44660;42.664;23.266;2022-09-09T00:10:52;11.85;;;9.52;;
58878;SDS011;44660;42.664;23.266;2022-09-09T00:16:24;14.18;;;10.60;;
58878;SDS011;44660;42.664;23.266;2022-09-09T00:21:36;14.98;;;11.70;;
58878;SDS011;44660;42.664;23.266;2022-09-09T00:24:23;14.05;;;10.77;;
58878;SDS011;44660;42.664;23.266;2022-09-09T00:26:53;14.70;;;10.07;;
58878;SDS011;44660;42.664;23.266;2022-09-09T00:32:39;13.40;;;9.52;;
58878;SDS011;44660;42.664;23.266;2022-09-09T00:37:47;12.35;;;9.20;;
58878;SDS011;44660;42.664;23.266;2022-09-09T00:40:22;12.50;;;9.55;;
58878;SDS011;44660;42.664;23.266;2022-09-09T00:42:54;16.88;;;10.23;;
58878;SDS011;44660;42.664;23.266;2022-09-09T00:45:55;13.98;;;9.20;;
58878;SDS011;44660;42.664;23.266;2022-09-09T00:48:22;12.98;;;9.20;;
58878;SDS011;44660;42.664;23.266;2022-09-09T00:51:02;12.52;;;8.80;;
58878;SDS011;44660;42.664;23.266;2022-09-09T00:56:40;11.27;;;8.98;;
58878;SDS011;44660;42.664;23.266;2022-09-09T00:59:37;12.18;;;9.30;;
58878;SDS011;44660;42.664;23.266;2022-09-09T01:02:30;10.68;;;8.68;;
58878;SDS011;44660;42.664;23.266;2022-09-09T01:05:07;14.30;;;8.95;;
58878;SDS011;44660;42.664;23.266;2022-09-09T01:07:38;12.52;;;9.55;;
58878;SDS011;44660;42.664;23.266;2022-09-09T01:10:15;12.98;;;9.02;;
58878;SDS011;44660;42.664;23.266;2022-09-09T01:12:51;14.00;;;9.43;;
58878;SDS011;44660;42.664;23.266;2022-09-09T01:15:21;12.20;;;9.23;;
58878;SDS011;44660;42.664;23.266;2022-09-09T01:20:51;15.45;;;9.25;;
58878;SDS011;44660;42.664;23.266;2022-09-09T01:28:44;13.60;;;9.23;;
58878;SDS011;44660;42.664;23.266;2022-09-09T01:31:14;11.57;;;9.85;;
58878;SDS011;44660;42.664;23.266;2022-09-09T01:33:44;12.50;;;9.98;;
58878;SDS011;44660;42.664;23.266;2022-09-09T01:36:15;9.85;;;8.80;;
58878;SDS011;44660;42.664;23.266;2022-09-09T01:38:55;13.15;;;8.90;;
58878;SDS011;44660;42.664;23.266;2022-09-09T01:41:20;13.55;;;9.25;;
58878;SDS011;44660;42.664;23.266;2022-09-09T01:43:46;11.55;;;8.73;;
58878;SDS011;44660;42.664;23.266;2022-09-09T01:46:12;13.93;;;9.50;;
58878;SDS011;44660;42.664;23.266;2022-09-09T01:48:38;15.57;;;9.65;;
58878;SDS011;44660;42.664;23.266;2022-09-09T01:51:07;16.15;;;9.60;;
58878;SDS011;44660;42.664;23.266;2022-09-09T01:53:34;11.50;;;9.40;;
58878;SDS011;44660;42.664;23.266;2022-09-09T02:04:02;13.68;;;9.15;;
58878;SDS011;44660;42.664;23.266;2022-09-09T02:06:42;13.07;;;9.43;;
58878;SDS011;44660;42.664;23.266;2022-09-09T02:09:10;11.35;;;9.27;;
58878;SDS011;44660;42.664;23.266;2022-09-09T02:11:37;13.65;;;9.52;;
58878;SDS011;44660;42.664;23.266;2022-09-09T02:14:08;14.88;;;9.00;;
58878;SDS011;44660;42.664;23.266;2022-09-09T02:16:39;14.43;;;9.45;;
58878;SDS011;44660;42.664;23.266;2022-09-09T02:19:44;14.93;;;9.10;;
58878;SDS011;44660;42.664;23.266;2022-09-09T02:22:24;11.02;;;9.10;;
58878;SDS011;44660;42.664;23.266;2022-09-09T02:24:52;13.90;;;9.30;;
58878;SDS011;44660;42.664;23.266;2022-09-09T02:27:21;11.05;;;9.68;;
58878;SDS011;44660;42.664;23.266;2022-09-09T02:29:48;10.45;;;9.35;;
58878;SDS011;44660;42.664;23.266;2022-09-09T02:32:20;15.82;;;9.65;;
58878;SDS011;44660;42.664;23.266;2022-09-09T02:34:48;12.80;;;8.85;;
58878;SDS011;44660;42.664;23.266;2022-09-09T02:37:19;15.75;;;9.73;;
58878;SDS011;44660;42.664;23.266;2022-09-09T02:39:46;13.90;;;9.27;;
58878;SDS011;44660;42.664;23.266;2022-09-09T02:42:12;17.63;;;11.07;;
58878;SDS011;44660;42.664;23.266;2022-09-09T02:44:39;14.73;;;10.00;;
58878;SDS011;44660;42.664;23.266;2022-09-09T02:47:18;13.05;;;9.15;;
58878;SDS011;44660;42.664;23.266;2022-09-09T02:52:35;13.82;;;9.40;;
58878;SDS011;44660;42.664;23.266;2022-09-09T02:55:12;11.60;;;8.65;;
58878;SDS011;44660;42.664;23.266;2022-09-09T02:57:46;11.98;;;9.48;;
58878;SDS011;44660;42.664;23.266;2022-09-09T03:00:13;12.00;;;9.32;;
58878;SDS011;44660;42.664;23.266;2022-09-09T03:02:39;14.18;;;9.27;;
58878;SDS011;44660;42.664;23.266;2022-09-09T03:05:05;13.75;;;9.32;;
58878;SDS011;44660;42.664;23.266;2022-09-09T03:07:31;12.80;;;9.32;;
58878;SDS011;44660;42.664;23.266;2022-09-09T03:09:57;14.02;;;9.65;;
58878;SDS011;44660;42.664;23.266;2022-09-09T03:12:23;11.18;;;9.50;;
58878;SDS011;44660;42.664;23.266;2022-09-09T03:14:48;13.35;;;9.70;;
58878;SDS011;44660;42.664;23.266;2022-09-09T03:17:14;12.10;;;9.75;;
58878;SDS011;44660;42.664;23.266;2022-09-09T03:19:40;13.93;;;9.50;;
58878;SDS011;44660;42.664;23.266;2022-09-09T03:22:06;11.45;;;9.50;;
58878;SDS011;44660;42.664;23.266;2022-09-09T03:24:31;13.48;;;9.52;;
58878;SDS011;44660;42.664;23.266;2022-09-09T03:26:57;11.40;;;9.73;;
58878;SDS011;44660;42.664;23.266;2022-09-09T03:29:22;15.38;;;10.25;;
58878;SDS011;44660;42.664;23.266;2022-09-09T03:31:48;18.23;;;10.18;;
58878;SDS011;44660;42.664;23.266;2022-09-09T03:34:13;12.95;;;10.18;;
58878;SDS011;44660;42.664;23.266;2022-09-09T03:36:38;12.10;;;10.00;;
58878;SDS011;44660;42.664;23.266;2022-09-09T03:39:06;15.13;;;10.32;;
58878;SDS011;44660;42.664;23.266;2022-09-09T03:41:32;14.15;;;10.57;;
58878;SDS011;44660;42.664;23.266;2022-09-09T03:43:57;12.15;;;9.65;;
58878;SDS011;44660;42.664;23.266;2022-09-09T03:46:23;14.07;;;10.52;;
58878;SDS011;44660;42.664;23.266;2022-09-09T03:48:50;12.95;;;9.93;;
58878;SDS011;44660;42.664;23.266;2022-09-09T03:51:17;14.25;;;11.27;;
58878;SDS011;44660;42.664;23.266;2022-09-09T03:53:43;13.70;;;10.55;;
58878;SDS011;44660;42.664;23.266;2022-09-09T03:56:09;12.98;;;10.23;;
58878;SDS011;44660;42.664;23.266;2022-09-09T03:58:35;19.10;;;10.63;;
58878;SDS011;44660;42.664;23.266;2022-09-09T04:01:03;13.15;;;10.82;;
58878;SDS011;44660;42.664;23.266;2022-09-09T04:03:38;17.25;;;12.15;;
58878;SDS011;44660;42.664;23.266;2022-09-09T04:06:04;15.73;;;10.93;;
58878;SDS011;44660;42.664;23.266;2022-09-09T04:08:32;19.33;;;11.45;;
58878;SDS011;44660;42.664;23.266;2022-09-09T04:10:59;17.02;;;11.25;;
58878;SDS011;44660;42.664;23.266;2022-09-09T04:13:26;17.33;;;11.15;;
58878;SDS011;44660;42.664;23.266;2022-09-09T04:15:54;14.82;;;10.95;;
58878;SDS011;44660;42.664;23.266;2022-09-09T04:18:20;14.73;;;11.35;;
58878;SDS011;44660;42.664;23.266;2022-09-09T04:20:47;17.02;;;11.80;;
58878;SDS011;44660;42.664;23.266;2022-09-09T04:23:14;15.77;;;11.75;;
58878;SDS011;44660;42.664;23.266;2022-09-09T04:25:49;14.40;;;11.13;;
58878;SDS011;44660;42.664;23.266;2022-09-09T04:28:16;16.33;;;12.50;;
58878;SDS011;44660;42.664;23.266;2022-09-09T04:30:43;18.42;;;12.65;;
58878;SDS011;44660;42.664;23.266;2022-09-09T04:33:09;22.08;;;13.77;;
58878;SDS011;44660;42.664;23.266;2022-09-09T04:35:36;17.52;;;12.45;;
58878;SDS011;44660;42.664;23.266;2022-09-09T04:38:03;23.10;;;11.75;;
58878;SDS011;44660;42.664;23.266;2022-09-09T04:40:30;23.17;;;12.90;;
58878;SDS011;44660;42.664;23.266;2022-09-09T04:42:59;22.77;;;13.85;;
58878;SDS011;44660;42.664;23.266;2022-09-09T04:45:25;27.85;;;16.45;;
58878;SDS011;44660;42.664;23.266;2022-09-09T04:47:51;22.50;;;16.38;;
58878;SDS011;44660;42.664;23.266;2022-09-09T04:50:17;19.95;;;12.30;;
58878;SDS011;44660;42.664;23.266;2022-09-09T04:52:43;25.10;;;18.13;;
58878;SDS011;44660;42.664;23.266;2022-09-09T04:55:09;20.73;;;13.38;;
58878;SDS011;44660;42.664;23.266;2022-09-09T04:57:34;20.52;;;12.75;;
58878;SDS011;44660;42.664;23.266;2022-09-09T05:00:00;24.00;;;16.23;;
58878;SDS011;44660;42.664;23.266;2022-09-09T05:02:27;54.65;;;34.47;;
58878;SDS011;44660;42.664;23.266;2022-09-09T05:04:52;44.90;;;31.13;;
58878;SDS011;44660;42.664;23.266;2022-09-09T05:07:18;28.70;;;20.10;;
58878;SDS011;44660;42.664;23.266;2022-09-09T05:09:44;53.75;;;36.53;;
58878;SDS011;44660;42.664;23.266;2022-09-09T05:12:10;23.95;;;17.10;;
58878;SDS011;44660;42.664;23.266;2022-09-09T05:14:36;20.42;;;14.57;;
58878;SDS011;44660;42.664;23.266;2022-09-09T05:17:02;21.42;;;14.98;;
58878;SDS011;44660;42.664;23.266;2022-09-09T05:19:28;20.48;;;12.77;;
58878;SDS011;44660;42.664;23.266;2022-09-09T05:21:55;17.05;;;13.60;;
58878;SDS011;44660;42.664;23.266;2022-09-09T05:24:20;17.48;;;12.80;;
58878;SDS011;44660;42.664;23.266;2022-09-09T05:26:48;24.60;;;13.73;;
58878;SDS011;44660;42.664;23.266;2022-09-09T05:29:13;23.15;;;13.10;;
58878;SDS011;44660;42.664;23.266;2022-09-09T05:31:38;21.50;;;13.63;;
58878;SDS011;44660;42.664;23.266;2022-09-09T05:34:04;19.77;;;13.35;;
58878;SDS011;44660;42.664;23.266;2022-09-09T05:36:29;16.40;;;13.10;;
58878;SDS011;44660;42.664;23.266;2022-09-09T05:38:55;30.67;;;22.35;;
58878;SDS011;44660;42.664;23.266;2022-09-09T05:41:20;29.70;;;19.92;;
58878;SDS011;44660;42.664;23.266;2022-09-09T05:43:47;47.15;;;32.63;;
58878;SDS011;44660;42.664;23.266;2022-09-09T05:46:17;36.17;;;25.88;;
58878;SDS011;44660;42.664;23.266;2022-09-09T05:48:45;29.10;;;18.27;;
58878;SDS011;44660;42.664;23.266;2022-09-09T05:51:13;20.90;;;14.88;;
58878;SDS011;44660;42.664;23.266;2022-09-09T05:53:41;25.10;;;14.93;;
58878;SDS011;44660;42.664;23.266;2022-09-09T05:56:08;21.52;;;14.23;;
58878;SDS011;44660;42.664;23.266;2022-09-09T05:58:36;24.60;;;15.17;;
58878;SDS011;44660;42.664;23.266;2022-09-09T06:01:09;21.20;;;13.75;;
58878;SDS011;44660;42.664;23.266;2022-09-09T06:03:37;27.42;;;14.38;;
58878;SDS011;44660;42.664;23.266;2022-09-09T06:06:04;25.77;;;14.77;;
58878;SDS011;44660;42.664;23.266;2022-09-09T06:08:32;18.17;;;15.10;;
58878;SDS011;44660;42.664;23.266;2022-09-09T06:11:03;23.40;;;14.48;;
58878;SDS011;44660;42.664;23.266;2022-09-09T06:13:30;18.48;;;13.77;;
58878;SDS011;44660;42.664;23.266;2022-09-09T06:15:56;21.27;;;14.00;;
58878;SDS011;44660;42.664;23.266;2022-09-09T06:18:21;19.10;;;13.07;;
58878;SDS011;44660;42.664;23.266;2022-09-09T06:20:57;18.60;;;13.55;;
58878;SDS011;44660;42.664;23.266;2022-09-09T06:23:24;17.70;;;12.95;;
58878;SDS011;44660;42.664;23.266;2022-09-09T06:25:50;21.38;;;13.38;;
58878;SDS011;44660;42.664;23.266;2022-09-09T06:28:16;21.40;;;12.70;;
58878;SDS011;44660;42.664;23.266;2022-09-09T06:30:42;18.02;;;13.43;;
58878;SDS011;44660;42.664;23.266;2022-09-09T06:33:08;19.30;;;13.90;;
58878;SDS011;44660;42.664;23.266;2022-09-09T06:35:34;18.92;;;14.20;;
58878;SDS011;44660;42.664;23.266;2022-09-09T06:38:03;20.85;;;14.63;;
58878;SDS011;44660;42.664;23.266;2022-09-09T06:40:28;21.48;;;13.30;;
58878;SDS011;44660;42.664;23.266;2022-09-09T06:42:58;19.10;;;13.20;;
58878;SDS011;44660;42.664;23.266;2022-09-09T06:45:24;20.30;;;12.68;;
58878;SDS011;44660;42.664;23.266;2022-09-09T06:47:50;32.50;;;21.40;;
58878;SDS011;44660;42.664;23.266;2022-09-09T06:50:17;33.72;;;22.83;;
58878;SDS011;44660;42.664;23.266;2022-09-09T06:52:45;21.08;;;14.27;;
58878;SDS011;44660;42.664;23.266;2022-09-09T06:55:12;21.58;;;13.20;;
58878;SDS011;44660;42.664;23.266;2022-09-09T06:57:38;20.40;;;13.73;;
58878;SDS011;44660;42.664;23.266;2022-09-09T07:00:03;19.40;;;12.98;;
58878;SDS011;44660;42.664;23.266;2022-09-09T07:02:29;17.35;;;12.95;;
58878;SDS011;44660;42.664;23.266;2022-09-09T07:04:54;17.35;;;12.57;;
58878;SDS011;44660;42.664;23.266;2022-09-09T07:07:20;18.75;;;12.93;;
58878;SDS011;44660;42.664;23.266;2022-09-09T07:09:45;23.55;;;13.10;;
58878;SDS011;44660;42.664;23.266;2022-09-09T07:12:11;18.15;;;12.75;;
58878;SDS011;44660;42.664;23.266;2022-09-09T07:14:37;22.63;;;12.55;;
58878;SDS011;44660;42.664;23.266;2022-09-09T07:17:03;20.17;;;11.85;;
58878;SDS011;44660;42.664;23.266;2022-09-09T07:19:28;22.08;;;12.57;;
58878;SDS011;44660;42.664;23.266;2022-09-09T07:21:53;19.55;;;10.80;;
58878;SDS011;44660;42.664;23.266;2022-09-09T07:24:19;25.20;;;11.43;;
58878;SDS011;44660;42.664;23.266;2022-09-09T07:26:44;16.67;;;10.45;;
58878;SDS011;44660;42.664;23.266;2022-09-09T07:29:11;17.65;;;10.80;;
58878;SDS011;44660;42.664;23.266;2022-09-09T07:31:38;14.20;;;9.83;;
58878;SDS011;44660;42.664;23.266;2022-09-09T07:34:07;16.38;;;8.88;;
58878;SDS011;44660;42.664;23.266;2022-09-09T07:36:34;14.45;;;9.00;;
58878;SDS011;44660;42.664;23.266;2022-09-09T07:39:04;14.70;;;8.68;;
58878;SDS011;44660;42.664;23.266;2022-09-09T07:41:35;16.80;;;8.25;;
58878;SDS011;44660;42.664;23.266;2022-09-09T07:44:09;12.05;;;8.00;;
58878;SDS011;44660;42.664;23.266;2022-09-09T07:46:36;11.65;;;7.82;;
58878;SDS011;44660;42.664;23.266;2022-09-09T07:49:04;12.25;;;7.35;;
58878;SDS011;44660;42.664;23.266;2022-09-09T07:51:31;10.38;;;7.20;;
58878;SDS011;44660;42.664;23.266;2022-09-09T07:53:59;13.50;;;7.63;;
58878;SDS011;44660;42.664;23.266;2022-09-09T07:56:27;11.55;;;7.40;;
58878;SDS011;44660;42.664;23.266;2022-09-09T07:58:54;11.38;;;6.80;;
58878;SDS011;44660;42.664;23.266;2022-09-09T08:03:55;9.90;;;6.40;;
58878;SDS011;44660;42.664;23.266;2022-09-09T08:06:26;13.73;;;6.03;;
58878;SDS011;44660;42.664;23.266;2022-09-09T08:08:54;11.60;;;6.63;;
58878;SDS011;44660;42.664;23.266;2022-09-09T08:11:20;14.32;;;6.35;;
58878;SDS011;44660;42.664;23.266;2022-09-09T08:13:48;11.88;;;6.07;;
58878;SDS011;44660;42.664;23.266;2022-09-09T08:16:16;13.35;;;7.18;;
58878;SDS011;44660;42.664;23.266;2022-09-09T08:18:51;12.65;;;6.65;;
58878;SDS011;44660;42.664;23.266;2022-09-09T08:21:18;12.20;;;6.60;;
58878;SDS011;44660;42.664;23.266;2022-09-09T08:23:46;16.40;;;6.45;;
58878;SDS011;44660;42.664;23.266;2022-09-09T08:26:17;14.47;;;6.13;;
58878;SDS011;44660;42.664;23.266;2022-09-09T08:28:50;11.52;;;7.32;;
58878;SDS011;44660;42.664;23.266;2022-09-09T08:31:21;13.73;;;6.95;;
58878;SDS011;44660;42.664;23.266;2022-09-09T08:33:54;12.27;;;7.00;;
58878;SDS011;44660;42.664;23.266;2022-09-09T08:36:21;12.65;;;6.80;;
58878;SDS011;44660;42.664;23.266;2022-09-09T08:38:51;13.85;;;7.32;;
58878;SDS011;44660;42.664;23.266;2022-09-09T08:41:28;10.25;;;7.50;;
58878;SDS011;44660;42.664;23.266;2022-09-09T08:44:05;12.10;;;7.10;;
58878;SDS011;44660;42.664;23.266;2022-09-09T08:46:42;21.38;;;7.47;;
58878;SDS011;44660;42.664;23.266;2022-09-09T08:52:16;15.10;;;6.72;;
58878;SDS011;44660;42.664;23.266;2022-09-09T08:54:46;11.32;;;6.63;;
58878;SDS011;44660;42.664;23.266;2022-09-09T08:57:14;12.10;;;6.60;;
58878;SDS011;44660;42.664;23.266;2022-09-09T08:59:51;9.82;;;6.80;;
58878;SDS011;44660;42.664;23.266;2022-09-09T09:02:26;9.77;;;6.63;;
58878;SDS011;44660;42.664;23.266;2022-09-09T09:12:57;13.20;;;6.53;;
58878;SDS011;44660;42.664;23.266;2022-09-09T09:15:25;17.55;;;8.73;;
58878;SDS011;44660;42.664;23.266;2022-09-09T09:17:54;10.90;;;6.25;;
58878;SDS011;44660;42.664;23.266;2022-09-09T09:20:23;13.77;;;6.22;;
58878;SDS011;44660;42.664;23.266;2022-09-09T09:23:01;13.77;;;6.57;;
58878;SDS011;44660;42.664;23.266;2022-09-09T09:28:09;13.18;;;5.88;;
58878;SDS011;44660;42.664;23.266;2022-09-09T09:30:56;11.40;;;6.20;;
58878;SDS011;44660;42.664;23.266;2022-09-09T09:36:15;12.27;;;5.93;;
58878;SDS011;44660;42.664;23.266;2022-09-09T09:38:51;10.10;;;5.40;;
58878;SDS011;44660;42.664;23.266;2022-09-09T09:41:33;10.20;;;5.30;;
58878;SDS011;44660;42.664;23.266;2022-09-09T09:44:01;11.63;;;5.63;;
58878;SDS011;44660;42.664;23.266;2022-09-09T09:46:28;8.82;;;5.53;;
58878;SDS011;44660;42.664;23.266;2022-09-09T09:49:01;13.18;;;5.70;;
58878;SDS011;44660;42.664;23.266;2022-09-09T09:51:30;9.43;;;5.50;;
58878;SDS011;44660;42.664;23.266;2022-09-09T09:56:38;10.30;;;5.60;;
58878;SDS011;44660;42.664;23.266;2022-09-09T09:59:05;9.30;;;5.18;;
58878;SDS011;44660;42.664;23.266;2022-09-09T10:01:31;11.73;;;5.47;;
58878;SDS011;44660;42.664;23.266;2022-09-09T10:03:59;8.50;;;5.60;;
58878;SDS011;44660;42.664;23.266;2022-09-09T10:06:34;8.10;;;5.13;;
58878;SDS011;44660;42.664;23.266;2022-09-09T10:09:03;10.88;;;5.93;;
58878;SDS011;44660;42.664;23.266;2022-09-09T10:19:36;15.65;;;6.15;;
58878;SDS011;44660;42.664;23.266;2022-09-09T10:33:32;11.10;;;5.97;;
58878;SDS011;44660;42.664;23.266;2022-09-09T10:39:04;11.43;;;5.82;;
58878;SDS011;44660;42.664;23.266;2022-09-09T10:41:48;9.52;;;5.78;;
58878;SDS011;44660;42.664;23.266;2022-09-09T10:55:39;16.05;;;6.65;;
58878;SDS011;44660;42.664;23.266;2022-09-09T10:58:11;9.68;;;6.47;;
58878;SDS011;44660;42.664;23.266;2022-09-09T11:00:50;14.57;;;7.00;;
58878;SDS011;44660;42.664;23.266;2022-09-09T11:03:23;15.52;;;6.80;;
58878;SDS011;44660;42.664;23.266;2022-09-09T11:05:53;13.80;;;6.85;;
58878;SDS011;44660;42.664;23.266;2022-09-09T11:08:31;13.35;;;7.10;;
58878;SDS011;44660;42.664;23.266;2022-09-09T11:11:03;11.30;;;7.47;;
58878;SDS011;44660;42.664;23.266;2022-09-09T11:19:04;16.73;;;7.15;;
58878;SDS011;44660;42.664;23.266;2022-09-09T11:21:40;12.90;;;6.65;;
58878;SDS011;44660;42.664;23.266;2022-09-09T11:24:12;15.18;;;7.38;;
58878;SDS011;44660;42.664;23.266;2022-09-09T11:27:02;11.05;;;6.88;;
58878;SDS011;44660;42.664;23.266;2022-09-09T11:35:19;15.27;;;7.05;;
58878;SDS011;44660;42.664;23.266;2022-09-09T11:40:53;19.17;;;7.18;;
58878;SDS011;44660;42.664;23.266;2022-09-09T11:44:08;14.50;;;6.93;;
58878;SDS011;44660;42.664;23.266;2022-09-09T11:46:12;11.93;;;7.00;;
58878;SDS011;44660;42.664;23.266;2022-09-09T11:48:58;10.07;;;7.03;;
58878;SDS011;44660;42.664;23.266;2022-09-09T11:51:29;9.48;;;6.95;;
58878;SDS011;44660;42.664;23.266;2022-09-09T11:53:57;11.90;;;7.30;;
58878;SDS011;44660;42.664;23.266;2022-09-09T12:01:29;9.57;;;6.47;;
58878;SDS011;44660;42.664;23.266;2022-09-09T12:06:45;13.68;;;7.00;;
58878;SDS011;44660;42.664;23.266;2022-09-09T12:17:37;11.05;;;7.13;;
58878;SDS011;44660;42.664;23.266;2022-09-09T12:20:12;13.15;;;7.40;;
58878;SDS011;44660;42.664;23.266;2022-09-09T12:27:58;12.32;;;6.57;;
58878;SDS011;44660;42.664;23.266;2022-09-09T12:30:31;11.65;;;6.75;;
58878;SDS011;44660;42.664;23.266;2022-09-09T12:33:15;16.63;;;7.13;;
58878;SDS011;44660;42.664;23.266;2022-09-09T12:35:43;12.93;;;7.10;;
58878;SDS011;44660;42.664;23.266;2022-09-09T12:38:13;7.78;;;5.40;;
58878;SDS011;44660;42.664;23.266;2022-09-09T12:40:54;14.73;;;5.32;;
58878;SDS011;44660;42.664;23.266;2022-09-09T12:43:22;11.00;;;5.70;;
58878;SDS011;44660;42.664;23.266;2022-09-09T12:48:21;12.30;;;5.65;;
58878;SDS011;44660;42.664;23.266;2022-09-09T12:50:55;11.65;;;5.78;;
58878;SDS011;44660;42.664;23.266;2022-09-09T12:53:22;15.90;;;5.90;;
58878;SDS011;44660;42.664;23.266;2022-09-09T12:56:04;13.77;;;4.70;;
58878;SDS011;44660;42.664;23.266;2022-09-09T12:58:33;9.50;;;4.60;;
58878;SDS011;44660;42.664;23.266;2022-09-09T13:01:00;8.20;;;4.70;;
58878;SDS011;44660;42.664;23.266;2022-09-09T13:03:30;11.60;;;5.13;;
58878;SDS011;44660;42.664;23.266;2022-09-09T13:06:13;11.73;;;5.28;;
58878;SDS011;44660;42.664;23.266;2022-09-09T13:08:44;8.75;;;5.03;;
58878;SDS011;44660;42.664;23.266;2022-09-09T13:11:12;8.65;;;5.00;;
58878;SDS011;44660;42.664;23.266;2022-09-09T13:13:42;11.90;;;5.22;;
58878;SDS011;44660;42.664;23.266;2022-09-09T13:16:21;10.93;;;5.13;;
58878;SDS011;44660;42.664;23.266;2022-09-09T13:18:47;14.57;;;5.30;;
58878;SDS011;44660;42.664;23.266;2022-09-09T13:21:12;10.25;;;5.05;;
58878;SDS011;44660;42.664;23.266;2022-09-09T13:23:39;10.68;;;5.03;;
58878;SDS011;44660;42.664;23.266;2022-09-09T13:26:05;10.63;;;5.88;;
58878;SDS011;44660;42.664;23.266;2022-09-09T13:28:52;17.52;;;7.55;;
58878;SDS011;44660;42.664;23.266;2022-09-09T13:31:23;18.05;;;7.25;;
58878;SDS011;44660;42.664;23.266;2022-09-09T13:33:52;13.00;;;6.88;;
58878;SDS011;44660;42.664;23.266;2022-09-09T13:36:26;13.25;;;7.22;;
58878;SDS011;44660;42.664;23.266;2022-09-09T13:39:01;15.00;;;6.90;;
58878;SDS011;44660;42.664;23.266;2022-09-09T13:41:29;13.70;;;7.38;;
58878;SDS011;44660;42.664;23.266;2022-09-09T13:43:58;18.67;;;7.40;;
58878;SDS011;44660;42.664;23.266;2022-09-09T13:49:18;19.92;;;7.18;;
58878;SDS011;44660;42.664;23.266;2022-09-09T13:51:48;12.00;;;8.45;;
58878;SDS011;44660;42.664;23.266;2022-09-09T13:54:27;21.25;;;8.82;;
58878;SDS011;44660;42.664;23.266;2022-09-09T13:56:53;14.55;;;8.25;;
58878;SDS011;44660;42.664;23.266;2022-09-09T13:59:20;16.02;;;7.50;;
58878;SDS011;44660;42.664;23.266;2022-09-09T14:01:46;14.60;;;7.32;;
58878;SDS011;44660;42.664;23.266;2022-09-09T14:04:12;17.00;;;7.07;;
58878;SDS011;44660;42.664;23.266;2022-09-09T14:06:38;12.05;;;6.95;;
58878;SDS011;44660;42.664;23.266;2022-09-09T14:09:05;11.43;;;7.00;;
58878;SDS011;44660;42.664;23.266;2022-09-09T14:11:31;14.05;;;7.18;;
58878;SDS011;44660;42.664;23.266;2022-09-09T14:13:57;16.73;;;7.57;;
58878;SDS011;44660;42.664;23.266;2022-09-09T14:16:22;17.75;;;7.72;;
58878;SDS011;44660;42.664;23.266;2022-09-09T14:18:48;16.50;;;8.18;;
58878;SDS011;44660;42.664;23.266;2022-09-09T14:21:13;16.90;;;8.32;;
58878;SDS011;44660;42.664;23.266;2022-09-09T14:23:40;16.52;;;8.23;;
58878;SDS011;44660;42.664;23.266;2022-09-09T14:26:06;12.75;;;7.65;;
58878;SDS011;44660;42.664;23.266;2022-09-09T14:28:32;16.23;;;6.97;;
58878;SDS011;44660;42.664;23.266;2022-09-09T14:30:59;12.00;;;6.97;;
58878;SDS011;44660;42.664;23.266;2022-09-09T14:33:26;17.77;;;7.53;;
58878;SDS011;44660;42.664;23.266;2022-09-09T14:35:59;13.15;;;7.20;;
58878;SDS011;44660;42.664;23.266;2022-09-09T14:38:29;9.98;;;7.15;;
58878;SDS011;44660;42.664;23.266;2022-09-09T14:40:56;15.43;;;7.35;;
58878;SDS011;44660;42.664;23.266;2022-09-09T14:43:23;15.10;;;6.78;;
58878;SDS011;44660;42.664;23.266;2022-09-09T14:45:49;10.52;;;7.13;;
58878;SDS011;44660;42.664;23.266;2022-09-09T14:48:16;9.57;;;6.25;;
58878;SDS011;44660;42.664;23.266;2022-09-09T14:50:42;12.25;;;6.93;;
58878;SDS011;44660;42.664;23.266;2022-09-09T14:53:08;12.77;;;6.93;;
58878;SDS011;44660;42.664;23.266;2022-09-09T14:55:35;15.35;;;6.72;;
58878;SDS011;44660;42.664;23.266;2022-09-09T14:58:01;21.05;;;7.70;;
58878;SDS011;44660;42.664;23.266;2022-09-09T15:00:27;16.80;;;6.80;;
58878;SDS011;44660;42.664;23.266;2022-09-09T15:02:53;12.43;;;6.85;;
58878;SDS011;44660;42.664;23.266;2022-09-09T15:05:19;17.95;;;7.43;;
58878;SDS011;44660;42.664;23.266;2022-09-09T15:07:45;15.68;;;7.40;;
58878;SDS011;44660;42.664;23.266;2022-09-09T15:10:12;14.52;;;7.05;;
58878;SDS011;44660;42.664;23.266;2022-09-09T15:12:37;10.07;;;6.53;;
58878;SDS011;44660;42.664;23.266;2022-09-09T15:15:04;15.52;;;7.78;;
58878;SDS011;44660;42.664;23.266;2022-09-09T15:17:30;13.50;;;6.80;;
58878;SDS011;44660;42.664;23.266;2022-09-09T15:19:56;14.45;;;6.95;;
58878;SDS011;44660;42.664;23.266;2022-09-09T15:22:21;15.43;;;7.32;;
58878;SDS011;44660;42.664;23.266;2022-09-09T15:24:47;14.15;;;6.78;;
58878;SDS011;44660;42.664;23.266;2022-09-09T15:27:13;19.77;;;7.75;;
58878;SDS011;44660;42.664;23.266;2022-09-09T15:29:39;15.88;;;6.93;;
58878;SDS011;44660;42.664;23.266;2022-09-09T15:32:06;19.58;;;7.45;;
58878;SDS011;44660;42.664;23.266;2022-09-09T15:34:32;13.07;;;7.63;;
58878;SDS011;44660;42.664;23.266;2022-09-09T15:36:57;14.77;;;7.70;;
58878;SDS011;44660;42.664;23.266;2022-09-09T15:39:25;12.30;;;7.00;;
58878;SDS011;44660;42.664;23.266;2022-09-09T15:41:50;16.08;;;7.22;;
58878;SDS011;44660;42.664;23.266;2022-09-09T15:44:16;16.85;;;7.25;;
58878;SDS011;44660;42.664;23.266;2022-09-09T15:46:44;19.58;;;7.05;;
58878;SDS011;44660;42.664;23.266;2022-09-09T15:49:15;11.18;;;6.88;;
58878;SDS011;44660;42.664;23.266;2022-09-09T15:51:45;12.32;;;7.22;;
58878;SDS011;44660;42.664;23.266;2022-09-09T15:54:16;14.82;;;7.20;;
58878;SDS011;44660;42.664;23.266;2022-09-09T15:56:45;17.02;;;7.53;;
58878;SDS011;44660;42.664;23.266;2022-09-09T16:01:39;16.27;;;8.02;;
58878;SDS011;44660;42.664;23.266;2022-09-09T16:04:05;17.48;;;8.60;;
58878;SDS011;44660;42.664;23.266;2022-09-09T16:06:31;17.48;;;8.07;;
58878;SDS011;44660;42.664;23.266;2022-09-09T16:08:58;16.58;;;8.02;;
58878;SDS011;44660;42.664;23.266;2022-09-09T16:11:36;13.98;;;7.63;;
58878;SDS011;44660;42.664;23.266;2022-09-09T16:14:03;17.23;;;9.20;;
58878;SDS011;44660;42.664;23.266;2022-09-09T16:16:30;21.48;;;7.95;;
58878;SDS011;44660;42.664;23.266;2022-09-09T16:19:01;21.02;;;10.60;;
58878;SDS011;44660;42.664;23.266;2022-09-09T16:21:36;15.02;;;7.85;;
58878;SDS011;44660;42.664;23.266;2022-09-09T16:24:03;26.30;;;12.35;;
58878;SDS011;44660;42.664;23.266;2022-09-09T16:26:30;19.92;;;11.70;;
58878;SDS011;44660;42.664;23.266;2022-09-09T16:28:57;13.93;;;7.67;;
58878;SDS011;44660;42.664;23.266;2022-09-09T16:31:24;15.77;;;8.48;;
58878;SDS011;44660;42.664;23.266;2022-09-09T16:33:51;15.93;;;7.63;;
58878;SDS011;44660;42.664;23.266;2022-09-09T16:36:18;18.50;;;10.63;;
58878;SDS011;44660;42.664;23.266;2022-09-09T16:38:45;17.38;;;8.70;;
58878;SDS011;44660;42.664;23.266;2022-09-09T16:41:11;12.85;;;8.10;;
58878;SDS011;44660;42.664;23.266;2022-09-09T16:43:38;15.52;;;7.80;;
58878;SDS011;44660;42.664;23.266;2022-09-09T16:46:12;16.00;;;8.93;;